createdAt,value
2022-09-09T00:00:16.965Z,17.88
2022-09-09T00:02:52.099Z,17.75
2022-09-09T00:05:29.303Z,17.79
2022-09-09T00:08:05.028Z,17.77
2022-09-09T00:10:36.292Z,17.80
2022-09-09T00:13:17.305Z,17.75
2022-09-09T00:16:16.390Z,17.67
2022-09-09T00:19:12.274Z,17.63
2022-09-09T00:22:16.021Z,17.56
2022-09-09T00:25:15.465Z,17.56
2022-09-09T00:28:22.552Z,17.53
2022-09-09T00:30:51.760Z,17.52
2022-09-09T00:33:24.588Z,17.49
2022-09-09T00:35:55.886Z,17.47
2022-09-09T00:38:29.642Z,17.49
2022-09-09T00:41:07.080Z,17.46
2022-09-09T00:43:38.962Z,17.44
2022-09-09T00:46:38.228Z,17.38
2022-09-09T00:49:17.666Z,17.29
2022-09-09T00:51:58.688Z,17.27
2022-09-09T00:54:46.612Z,17.21
2022-09-09T00:57:28.797Z,17.19
2022-09-09T01:00:20.734Z,17.19
2022-09-09T01:03:06.442Z,17.22
2022-09-09T01:05:42.224Z,17.20
2022-09-09T01:08:21.099Z,17.18
2022-09-09T01:10:54.729Z,17.13
2022-09-09T01:13:27.453Z,17.12
2022-09-09T01:16:01.209Z,17.27
2022-09-09T01:18:35.817Z,17.24
2022-09-09T01:21:14.727Z,17.19
2022-09-09T01:24:07.192Z,17.19
2022-09-09T01:26:39.436Z,17.08
2022-09-09T01:29:10.301Z,17.11
2022-09-09T01:31:42.033Z,17.08
2022-09-09T01:34:15.218Z,17.04
2022-09-09T01:36:48.904Z,17.06
2022-09-09T01:39:17.041Z,17.09
2022-09-09T01:41:46.473Z,17.12
2022-09-09T01:44:15.224Z,17.07
2022-09-09T01:46:43.278Z,16.93
2022-09-09T01:49:11.848Z,16.86
2022-09-09T01:51:42.067Z,16.89
2022-09-09T01:54:10.470Z,16.88
2022-09-09T01:56:49.404Z,16.90
2022-09-09T01:59:37.491Z,16.93
2022-09-09T02:02:12.660Z,16.86
2022-09-09T02:04:43.281Z,16.86
2022-09-09T02:07:25.135Z,16.83
2022-09-09T02:10:01.173Z,16.83
2022-09-09T02:12:32.653Z,16.83
2022-09-09T02:15:05.866Z,16.80
2022-09-09T02:17:38.111Z,16.80
2022-09-09T02:20:09.846Z,16.78
2022-09-09T02:22:41.040Z,16.77
2022-09-09T02:25:12.904Z,16.89
2022-09-09T02:27:44.021Z,16.84
2022-09-09T02:30:13.911Z,16.78
2022-09-09T02:32:44.641Z,16.72
2022-09-09T02:35:15.610Z,16.72
2022-09-09T02:37:47.022Z,16.73
2022-09-09T02:40:16.814Z,16.66
2022-09-09T02:42:47.860Z,16.56
2022-09-09T02:45:20.282Z,16.49
2022-09-09T02:47:56.161Z,16.49
2022-09-09T02:50:30.339Z,16.51
2022-09-09T02:53:11.183Z,16.54
2022-09-09T02:55:48.027Z,16.54
2022-09-09T02:58:20.000Z,16.57
2022-09-09T03:00:50.556Z,16.60
2022-09-09T03:03:20.646Z,16.62
2022-09-09T03:05:49.023Z,16.62
2022-09-09T03:08:17.461Z,16.61
2022-09-09T03:10:45.993Z,16.61
2022-09-09T03:13:16.364Z,16.60
2022-09-09T03:15:46.794Z,16.50
2022-09-09T03:18:14.747Z,16.46
2022-09-09T03:20:44.174Z,16.45
2022-09-09T03:23:15.949Z,16.39
2022-09-09T03:25:49.353Z,16.35
2022-09-09T03:28:17.697Z,16.36
2022-09-09T03:30:47.087Z,16.37
2022-09-09T03:33:16.077Z,16.37
2022-09-09T03:35:49.853Z,16.51
2022-09-09T03:38:18.136Z,16.44
2022-09-09T03:40:52.259Z,16.41
2022-09-09T03:43:20.949Z,16.41
2022-09-09T03:45:51.329Z,16.37
2022-09-09T03:48:20.753Z,16.30
2022-09-09T03:50:49.033Z,16.33
2022-09-09T03:53:18.741Z,16.40
2022-09-09T03:55:47.847Z,16.37
2022-09-09T03:58:16.276Z,16.38
2022-09-09T04:00:46.028Z,16.39
2022-09-09T04:03:16.734Z,16.31
2022-09-09T04:05:44.784Z,16.32
2022-09-09T04:08:13.029Z,16.44
2022-09-09T04:10:41.189Z,16.47
2022-09-09T04:13:09.159Z,16.51
2022-09-09T04:15:37.676Z,16.47
2022-09-09T04:18:06.657Z,16.40
2022-09-09T04:20:36.487Z,16.34
2022-09-09T04:23:04.624Z,16.37
2022-09-09T04:25:32.706Z,16.27
2022-09-09T04:28:00.800Z,16.30
2022-09-09T04:30:29.676Z,16.43
2022-09-09T04:32:58.857Z,16.49
2022-09-09T04:35:28.293Z,16.60
2022-09-09T04:37:57.956Z,16.70
2022-09-09T04:40:26.284Z,16.75
2022-09-09T04:42:54.383Z,16.78
2022-09-09T04:45:22.415Z,16.76
2022-09-09T04:47:50.565Z,16.80
2022-09-09T04:50:18.642Z,16.97
2022-09-09T04:52:46.864Z,16.97
2022-09-09T04:55:17.184Z,16.94
2022-09-09T04:57:45.157Z,16.94
2022-09-09T05:00:14.542Z,17.00
2022-09-09T05:02:43.646Z,17.10
2022-09-09T05:05:12.270Z,17.08
2022-09-09T05:07:40.265Z,17.21
2022-09-09T05:10:08.746Z,17.26
2022-09-09T05:12:38.465Z,17.29
2022-09-09T05:15:08.172Z,17.29
2022-09-09T05:17:36.270Z,17.26
2022-09-09T05:20:09.669Z,17.39
2022-09-09T05:22:38.767Z,17.38
2022-09-09T05:25:07.361Z,17.30
2022-09-09T05:27:36.268Z,17.36
2022-09-09T05:30:06.765Z,17.51
2022-09-09T05:32:35.269Z,17.54
2022-09-09T05:35:03.733Z,17.54
2022-09-09T05:37:33.170Z,17.56
2022-09-09T05:40:02.148Z,17.59
2022-09-09T05:42:33.600Z,17.63
2022-09-09T05:45:01.618Z,17.66
2022-09-09T05:47:31.117Z,17.76
2022-09-09T05:49:59.183Z,17.80
2022-09-09T05:52:28.244Z,17.81
2022-09-09T05:54:57.984Z,17.79
2022-09-09T05:57:26.302Z,17.93
2022-09-09T05:59:54.871Z,17.96
2022-09-09T06:02:22.984Z,18.00
2022-09-09T06:04:52.714Z,18.09
2022-09-09T06:07:21.192Z,18.14
2022-09-09T06:09:49.344Z,18.21
2022-09-09T06:12:17.473Z,18.21
2022-09-09T06:14:46.514Z,18.28
2022-09-09T06:17:14.674Z,18.25
2022-09-09T06:19:42.801Z,18.42
2022-09-09T06:22:13.155Z,18.53
2022-09-09T06:24:41.189Z,18.54
2022-09-09T06:27:09.252Z,18.69
2022-09-09T06:29:37.256Z,18.68
2022-09-09T06:32:05.605Z,18.83
2022-09-09T06:34:33.652Z,18.97
2022-09-09T06:37:01.919Z,19.03
2022-09-09T06:39:32.147Z,19.02
2022-09-09T06:42:00.915Z,19.15
2022-09-09T06:44:33.334Z,19.23
2022-09-09T06:47:03.219Z,19.17
2022-09-09T06:49:31.342Z,19.21
2022-09-09T06:51:59.371Z,19.29
2022-09-09T06:54:27.379Z,19.43
2022-09-09T06:56:56.739Z,19.47
2022-09-09T06:59:24.820Z,19.48
2022-09-09T07:01:56.508Z,19.59
2022-09-09T07:04:24.845Z,19.61
2022-09-09T07:06:53.673Z,19.76
2022-09-09T07:09:22.795Z,19.74
2022-09-09T07:11:53.849Z,19.89
2022-09-09T07:14:23.895Z,19.90
2022-09-09T07:16:52.655Z,19.97
2022-09-09T07:19:22.554Z,20.12
2022-09-09T07:21:51.381Z,20.16
2022-09-09T07:24:19.517Z,20.25
2022-09-09T07:26:47.672Z,20.11
2022-09-09T07:29:20.022Z,20.24
2022-09-09T07:31:50.421Z,20.47
2022-09-09T07:34:19.548Z,20.69
2022-09-09T07:36:47.809Z,20.70
2022-09-09T07:39:18.636Z,20.79
2022-09-09T07:41:48.913Z,20.77
2022-09-09T07:44:19.222Z,20.86
2022-09-09T07:46:48.594Z,21.07
2022-09-09T07:49:24.372Z,21.11
2022-09-09T07:51:56.144Z,21.18
2022-09-09T07:54:24.796Z,21.35
2022-09-09T07:56:53.865Z,21.42
2022-09-09T07:59:22.010Z,21.54
2022-09-09T08:01:56.149Z,21.66
2022-09-09T08:04:27.250Z,21.81
2022-09-09T08:06:58.019Z,21.95
2022-09-09T08:09:30.223Z,22.06
2022-09-09T08:11:59.314Z,22.22
2022-09-09T08:14:27.548Z,22.45
2022-09-09T08:16:58.435Z,22.60
2022-09-09T08:19:30.294Z,22.61
2022-09-09T08:21:58.302Z,22.63
2022-09-09T08:24:26.309Z,22.68
2022-09-09T08:26:54.694Z,22.80
2022-09-09T08:29:22.716Z,22.91
2022-09-09T08:31:53.931Z,23.29
2022-09-09T08:34:22.397Z,23.40
2022-09-09T08:36:53.142Z,23.48
2022-09-09T08:39:22.901Z,23.54
2022-09-09T08:42:19.891Z,23.63
2022-09-09T08:45:11.345Z,23.39
2022-09-09T08:47:52.062Z,23.59
2022-09-09T08:50:29.228Z,23.64
2022-09-09T08:53:04.978Z,23.62
2022-09-09T08:55:44.083Z,23.63
2022-09-09T08:58:17.425Z,23.54
2022-09-09T09:01:01.329Z,23.13
2022-09-09T09:03:38.880Z,23.19
2022-09-09T09:06:16.492Z,23.33
2022-09-09T09:08:54.359Z,23.59
2022-09-09T09:11:23.496Z,23.73
2022-09-09T09:13:57.963Z,23.96
2022-09-09T09:16:33.706Z,24.21
2022-09-09T09:19:02.482Z,24.37
2022-09-09T09:21:39.242Z,24.27
2022-09-09T09:24:21.303Z,24.26
2022-09-09T09:26:50.672Z,24.16
2022-09-09T09:29:20.939Z,24.23
2022-09-09T09:31:55.911Z,24.26
2022-09-09T09:34:24.404Z,24.40
2022-09-09T09:36:56.525Z,24.42
2022-09-09T09:42:21.659Z,24.87
2022-09-09T09:44:51.815Z,25.00
2022-09-09T09:47:21.650Z,25.23
2022-09-09T09:49:56.472Z,25.41
2022-09-09T09:52:26.968Z,25.55
2022-09-09T09:54:58.658Z,25.67
2022-09-09T09:57:30.373Z,25.55
2022-09-09T10:00:11.821Z,25.53
2022-09-09T10:02:44.309Z,25.65
2022-09-09T10:05:20.975Z,25.89
2022-09-09T10:08:04.379Z,25.60
2022-09-09T10:10:47.969Z,25.27
2022-09-09T10:13:25.662Z,25.48
2022-09-09T10:16:10.651Z,25.63
2022-09-09T10:18:51.971Z,25.53
2022-09-09T10:21:33.379Z,25.58
2022-09-09T10:24:28.669Z,25.65
2022-09-09T10:27:04.160Z,25.70
2022-09-09T10:29:46.625Z,25.68
2022-09-09T10:32:35.746Z,25.91
2022-09-09T10:35:12.522Z,26.09
2022-09-09T10:37:59.392Z,26.38
2022-09-09T10:40:34.646Z,26.47
2022-09-09T10:43:23.637Z,26.48
2022-09-09T10:46:01.914Z,26.43
2022-09-09T10:48:39.465Z,26.58
2022-09-09T10:51:25.599Z,26.74
2022-09-09T10:54:07.799Z,26.84
2022-09-09T10:56:37.132Z,26.63
2022-09-09T10:59:14.238Z,26.85
2022-09-09T11:01:46.141Z,27.00
2022-09-09T11:04:19.969Z,27.01
2022-09-09T11:06:52.439Z,27.08
2022-09-09T11:09:24.408Z,26.95
2022-09-09T11:11:56.237Z,26.84
2022-09-09T11:14:37.421Z,26.84
2022-09-09T11:17:11.953Z,26.82
2022-09-09T11:19:41.782Z,26.80
2022-09-09T11:22:19.836Z,26.88
2022-09-09T11:24:52.636Z,26.91
2022-09-09T11:27:26.054Z,27.01
2022-09-09T11:30:44.530Z,27.30
2022-09-09T11:33:35.972Z,27.50
2022-09-09T11:36:32.916Z,27.67
2022-09-09T11:39:12.192Z,27.53
2022-09-09T11:41:40.491Z,27.47
2022-09-09T11:44:14.916Z,27.38
2022-09-09T11:46:44.758Z,27.53
2022-09-09T11:49:29.866Z,27.68
2022-09-09T11:51:57.984Z,27.77
2022-09-09T11:54:36.203Z,27.53
2022-09-09T11:57:05.800Z,27.63
2022-09-09T11:59:35.152Z,27.81
2022-09-09T12:02:08.098Z,27.97
2022-09-09T12:04:40.737Z,28.20
2022-09-09T12:07:32.774Z,28.29
2022-09-09T12:10:05.672Z,28.42
2022-09-09T12:12:37.466Z,28.61
2022-09-09T12:15:26.366Z,28.78
2022-09-09T12:18:02.668Z,28.77
2022-09-09T12:20:37.114Z,28.89
2022-09-09T12:23:24.919Z,28.97
2022-09-09T12:26:05.577Z,28.95
2022-09-09T12:28:54.893Z,28.92
2022-09-09T12:31:29.343Z,28.97
2022-09-09T12:34:12.279Z,29.09
2022-09-09T12:36:42.215Z,29.12
2022-09-09T12:39:20.235Z,29.22
2022-09-09T12:41:58.177Z,29.17
2022-09-09T12:44:29.102Z,29.26
2022-09-09T12:47:00.399Z,29.21
2022-09-09T12:49:37.519Z,29.07
2022-09-09T12:52:11.047Z,28.89
2022-09-09T12:54:39.798Z,28.50
2022-09-09T12:57:13.231Z,28.70
2022-09-09T12:59:43.043Z,29.15
2022-09-09T13:02:20.583Z,29.57
2022-09-09T13:04:51.567Z,29.72
2022-09-09T13:07:20.644Z,29.85
2022-09-09T13:09:50.403Z,29.90
2022-09-09T13:12:21.695Z,30.01
2022-09-09T13:14:53.088Z,30.09
2022-09-09T13:17:24.133Z,30.15
2022-09-09T13:19:56.811Z,29.95
2022-09-09T13:22:33.527Z,29.86
2022-09-09T13:25:04.618Z,29.84
2022-09-09T13:27:35.203Z,29.89
2022-09-09T13:30:03.820Z,29.72
2022-09-09T13:32:32.578Z,29.60
2022-09-09T13:35:03.843Z,29.79
2022-09-09T13:37:36.448Z,29.81
2022-09-09T13:40:06.945Z,29.88
2022-09-09T13:42:40.714Z,29.75
2022-09-09T13:45:21.598Z,29.64
2022-09-09T13:47:53.606Z,29.54
2022-09-09T13:50:24.958Z,29.47
2022-09-09T13:52:55.286Z,29.41
2022-09-09T13:55:24.784Z,29.46
2022-09-09T13:57:54.386Z,29.53
2022-09-09T14:00:22.941Z,29.69
2022-09-09T14:02:51.316Z,29.81
2022-09-09T14:05:20.115Z,29.60
2022-09-09T14:07:53.176Z,29.48
2022-09-09T14:10:22.035Z,29.33
2022-09-09T14:12:50.477Z,29.20
2022-09-09T14:15:18.793Z,29.03
2022-09-09T14:17:47.160Z,28.95
2022-09-09T14:20:16.468Z,28.93
2022-09-09T14:22:45.134Z,29.04
2022-09-09T14:25:15.595Z,28.92
2022-09-09T14:27:44.674Z,28.79
2022-09-09T14:30:13.905Z,28.66
2022-09-09T14:32:41.974Z,28.67
2022-09-09T14:35:10.978Z,28.72
2022-09-09T14:37:40.311Z,28.75
2022-09-09T14:40:09.623Z,28.86
2022-09-09T14:42:39.514Z,28.96
2022-09-09T14:45:09.086Z,28.97
2022-09-09T14:47:37.316Z,28.94
2022-09-09T14:50:06.141Z,28.79
2022-09-09T14:52:34.268Z,28.75
2022-09-09T14:55:02.386Z,28.80
2022-09-09T14:57:30.621Z,28.65
2022-09-09T15:00:00.155Z,28.72
2022-09-09T15:02:28.368Z,28.82
2022-09-09T15:04:58.787Z,28.69
2022-09-09T15:07:27.699Z,28.61
2022-09-09T15:09:56.182Z,28.55
2022-09-09T15:12:24.200Z,28.58
2022-09-09T15:14:53.253Z,28.61
2022-09-09T15:17:22.719Z,28.50
2022-09-09T15:19:51.156Z,28.35
2022-09-09T15:22:20.143Z,28.33
2022-09-09T15:24:48.350Z,28.19
2022-09-09T15:27:16.749Z,28.16
2022-09-09T15:29:45.197Z,28.16
2022-09-09T15:32:13.219Z,28.08
2022-09-09T15:34:43.064Z,28.19
2022-09-09T15:37:14.040Z,28.10
2022-09-09T15:39:44.438Z,27.96
2022-09-09T15:42:12.551Z,27.95
2022-09-09T15:44:43.401Z,27.91
2022-09-09T15:47:14.792Z,27.87
2022-09-09T15:49:44.604Z,27.76
2022-09-09T15:52:13.171Z,27.70
2022-09-09T15:54:41.465Z,27.65
2022-09-09T15:57:14.718Z,27.62
2022-09-09T15:59:42.973Z,27.51
2022-09-09T16:02:12.143Z,27.40
2022-09-09T16:04:40.216Z,27.24
2022-09-09T16:07:09.670Z,27.22
2022-09-09T16:09:38.433Z,27.14
2022-09-09T16:12:10.697Z,27.03
2022-09-09T16:14:39.849Z,27.06
2022-09-09T16:17:08.221Z,27.04
2022-09-09T16:19:36.692Z,26.99
2022-09-09T16:22:07.560Z,26.90
2022-09-09T16:24:37.000Z,26.89
2022-09-09T16:27:05.351Z,26.82
2022-09-09T16:29:33.436Z,26.73
2022-09-09T16:32:04.210Z,26.63
2022-09-09T16:34:32.459Z,26.60
2022-09-09T16:37:00.423Z,26.53
2022-09-09T16:39:28.846Z,26.43
2022-09-09T16:41:58.972Z,26.34
2022-09-09T16:44:27.243Z,26.20
2022-09-09T16:47:00.452Z,26.13
2022-09-09T16:49:29.455Z,26.11
2022-09-09T16:52:00.839Z,26.03
2022-09-09T16:54:29.967Z,26.03
2022-09-09T16:56:59.720Z,25.98
2022-09-09T16:59:27.791Z,25.98
2022-09-09T17:01:56.314Z,25.97
2022-09-09T17:04:27.499Z,25.90
2022-09-09T17:06:57.024Z,25.81
2022-09-09T17:09:29.887Z,25.78
2022-09-09T17:11:59.757Z,25.69
2022-09-09T17:14:27.771Z,25.66
2022-09-09T17:17:01.971Z,25.66
2022-09-09T17:19:37.323Z,25.66
2022-09-09T17:22:16.685Z,25.59
2022-09-09T17:24:45.409Z,25.53
2022-09-09T17:27:14.928Z,25.51
2022-09-09T17:29:43.886Z,25.42
2022-09-09T17:32:11.923Z,25.31
2022-09-09T17:34:40.021Z,25.23
2022-09-09T17:37:08.073Z,25.13
2022-09-09T17:39:36.680Z,25.10
2022-09-09T17:42:05.083Z,25.02
2022-09-09T17:44:34.887Z,24.97
2022-09-09T17:47:05.089Z,24.92
2022-09-09T17:49:33.097Z,24.85
2022-09-09T17:52:01.064Z,24.82
2022-09-09T17:54:29.308Z,24.78
2022-09-09T17:56:58.661Z,24.72
2022-09-09T17:59:26.655Z,24.65
2022-09-09T18:01:56.136Z,24.59
2022-09-09T18:04:24.604Z,24.54
2022-09-09T18:06:54.312Z,24.47
2022-09-09T18:09:25.590Z,24.43
2022-09-09T18:11:56.434Z,24.41
2022-09-09T18:14:26.209Z,24.34
2022-09-09T18:16:56.276Z,24.29
2022-09-09T18:19:27.074Z,24.26
2022-09-09T18:21:57.478Z,24.23
2022-09-09T18:24:28.750Z,24.16
2022-09-09T18:26:56.983Z,24.09
2022-09-09T18:29:26.329Z,24.02
2022-09-09T18:31:56.821Z,24.02
2022-09-09T18:34:25.723Z,23.93
2022-09-09T18:36:56.271Z,23.91
2022-09-09T18:39:27.589Z,23.81
2022-09-09T18:41:58.676Z,23.77
2022-09-09T18:44:30.398Z,23.70
2022-09-09T18:47:00.457Z,23.68
2022-09-09T18:49:28.617Z,23.61
2022-09-09T18:51:57.062Z,23.66
2022-09-09T18:54:29.874Z,23.62
2022-09-09T18:56:59.632Z,23.66
2022-09-09T18:59:28.453Z,23.67
2022-09-09T19:01:56.684Z,23.52
2022-09-09T19:04:27.445Z,23.40
2022-09-09T19:06:58.337Z,23.32
2022-09-09T19:09:29.164Z,23.29
2022-09-09T19:11:57.371Z,23.23
2022-09-09T19:14:25.680Z,23.18
2022-09-09T19:16:54.055Z,23.11
2022-09-09T19:19:25.939Z,23.11
2022-09-09T19:21:55.289Z,23.02
2022-09-09T19:24:24.906Z,22.93
2022-09-09T19:26:54.975Z,22.88
2022-09-09T19:29:25.028Z,22.85
2022-09-09T19:32:36.519Z,22.87
2022-09-09T19:34:44.569Z,22.87
2022-09-09T19:37:18.159Z,22.88
2022-09-09T19:39:47.164Z,22.91
2022-09-09T19:42:15.511Z,22.86
2022-09-09T19:44:43.551Z,22.88
2022-09-09T19:47:13.025Z,22.88
2022-09-09T19:49:43.867Z,22.77
2022-09-09T19:52:16.103Z,22.74
2022-09-09T19:54:44.526Z,22.70
2022-09-09T19:57:12.674Z,22.73
2022-09-09T19:59:40.702Z,22.68
2022-09-09T20:02:09.046Z,22.58
2022-09-09T20:04:37.152Z,22.55
2022-09-09T20:07:05.218Z,22.58
2022-09-09T20:09:34.639Z,22.45
2022-09-09T20:12:03.020Z,22.36
2022-09-09T20:14:31.129Z,22.40
2022-09-09T20:16:59.657Z,22.37
2022-09-09T20:19:27.680Z,22.44
2022-09-09T20:21:56.113Z,22.33
2022-09-09T20:24:25.078Z,22.24
2022-09-09T20:26:54.652Z,22.20
2022-09-09T20:29:23.112Z,22.21
2022-09-09T20:31:51.307Z,22.30
2022-09-09T20:34:22.919Z,22.20
2022-09-09T20:36:51.600Z,22.18
2022-09-09T20:39:22.189Z,22.10
2022-09-09T20:41:50.968Z,22.09
2022-09-09T20:44:24.208Z,22.02
2022-09-09T20:46:55.586Z,21.96
2022-09-09T20:49:24.430Z,21.89
2022-09-09T20:51:54.393Z,21.81
2022-09-09T20:54:24.944Z,21.78
2022-09-09T20:56:54.572Z,21.84
2022-09-09T20:59:26.362Z,21.75
2022-09-09T21:01:55.010Z,21.74
2022-09-09T21:04:24.605Z,21.81
2022-09-09T21:06:52.925Z,21.81
2022-09-09T21:09:25.055Z,21.70
2022-09-09T21:11:54.665Z,21.63
2022-09-09T21:14:24.197Z,21.55
2022-09-09T21:16:52.304Z,21.51
2022-09-09T21:19:20.584Z,21.55
2022-09-09T21:21:49.033Z,21.53
2022-09-09T21:24:17.516Z,21.49
2022-09-09T21:26:45.772Z,21.43
2022-09-09T21:29:14.200Z,21.35
2022-09-09T21:31:44.349Z,21.34
2022-09-09T21:34:13.492Z,21.27
2022-09-09T21:36:42.798Z,21.22
2022-09-09T21:39:10.856Z,21.19
2022-09-09T21:41:39.089Z,21.17
2022-09-09T21:44:09.176Z,21.22
2022-09-09T21:46:37.675Z,21.19
2022-09-09T21:49:07.193Z,21.14
2022-09-09T21:51:36.934Z,21.07
2022-09-09T21:54:06.936Z,21.10
2022-09-09T21:56:35.839Z,21.14
2022-09-09T21:59:04.879Z,21.22
2022-09-09T22:01:34.671Z,21.28
2022-09-09T22:04:03.209Z,21.32
2022-09-09T22:06:32.780Z,21.24
2022-09-09T22:09:02.111Z,21.02
2022-09-09T22:11:31.349Z,20.96
2022-09-09T22:13:59.428Z,20.99
2022-09-09T22:16:27.701Z,21.00
2022-09-09T22:18:57.758Z,20.94
2022-09-09T22:21:27.242Z,20.85
2022-09-09T22:23:59.346Z,20.77
2022-09-09T22:26:29.959Z,20.72
2022-09-09T22:28:58.060Z,20.65
2022-09-09T22:31:27.018Z,20.63
2022-09-09T22:33:55.842Z,20.59
2022-09-09T22:36:24.015Z,20.55
2022-09-09T22:38:52.341Z,20.59
2022-09-09T22:41:22.081Z,20.65
2022-09-09T22:43:50.184Z,20.71
2022-09-09T22:46:19.048Z,20.66
2022-09-09T22:48:47.289Z,20.55
2022-09-09T22:51:16.209Z,20.63
2022-09-09T22:53:46.777Z,20.58
2022-09-09T22:56:17.747Z,20.65
2022-09-09T22:58:48.281Z,20.56
2022-09-09T23:01:19.353Z,20.51
2022-09-09T23:03:48.044Z,20.55
2022-09-09T23:06:22.383Z,20.43
2022-09-09T23:08:55.900Z,20.35
2022-09-09T23:11:26.376Z,20.23
2022-09-09T23:13:58.862Z,20.23
2022-09-09T23:16:29.318Z,20.31
2022-09-09T23:18:57.407Z,20.35
2022-09-09T23:21:28.209Z,20.30
2022-09-09T23:23:58.081Z,20.32
2022-09-09T23:26:30.018Z,20.24
2022-09-09T23:29:02.123Z,20.21
2022-09-09T23:31:32.998Z,20.18
2022-09-09T23:34:02.163Z,20.12
2022-09-09T23:36:31.132Z,20.04
2022-09-09T23:39:00.516Z,19.97
2022-09-09T23:41:28.719Z,19.98
2022-09-09T23:43:57.065Z,19.96
2022-09-09T23:46:28.697Z,19.94
2022-09-09T23:48:58.487Z,19.93
2022-09-09T23:51:30.611Z,19.88
2022-09-09T23:54:03.810Z,19.83
2022-09-09T23:56:33.984Z,19.88
2022-09-09T23:59:02.355Z,19.82
